createdAt,value
2023-02-27T00:00:41.080Z,2.36
2023-02-27T00:01:41.089Z,2.39
2023-02-27T00:02:41.096Z,2.36
2023-02-27T00:03:41.098Z,2.34
2023-02-27T00:04:41.047Z,2.36
2023-02-27T00:05:41.042Z,2.34
2023-02-27T00:06:41.041Z,2.33
2023-02-27T00:07:41.027Z,2.37
2023-02-27T00:08:41.068Z,2.34
2023-02-27T00:09:40.998Z,2.30
2023-02-27T00:10:40.978Z,2.32
2023-02-27T00:11:40.986Z,2.30
2023-02-27T00:12:40.967Z,2.28
2023-02-27T00:13:40.985Z,2.25
2023-02-27T00:14:40.941Z,2.30
2023-02-27T00:15:41.151Z,2.25
2023-02-27T00:16:40.917Z,2.26
2023-02-27T00:17:40.948Z,2.28
2023-02-27T00:18:40.916Z,2.25
2023-02-27T00:19:40.904Z,2.25
2023-02-27T00:20:40.886Z,2.25
2023-02-27T00:21:40.876Z,2.21
2023-02-27T00:22:40.865Z,2.22
2023-02-27T00:23:40.874Z,2.21
2023-02-27T00:24:40.844Z,2.19
2023-02-27T00:25:40.839Z,2.18
2023-02-27T00:26:40.835Z,2.16
2023-02-27T00:27:40.818Z,2.16
2023-02-27T00:28:40.801Z,2.16
2023-02-27T00:29:40.819Z,2.15
2023-02-27T00:30:40.809Z,2.16
2023-02-27T00:31:40.858Z,2.14
2023-02-27T00:32:40.763Z,2.12
2023-02-27T00:33:40.770Z,2.14
2023-02-27T00:34:40.740Z,2.08
2023-02-27T00:35:40.738Z,2.07
2023-02-27T00:36:40.718Z,2.08
2023-02-27T00:37:40.715Z,2.07
2023-02-27T00:38:40.690Z,2.05
2023-02-27T00:39:40.710Z,2.05
2023-02-27T00:40:40.675Z,2.04
2023-02-27T00:41:40.672Z,2.03
2023-02-27T00:42:40.658Z,2.03
2023-02-27T00:43:40.655Z,2.03
2023-02-27T00:44:40.636Z,2.00
2023-02-27T00:45:40.638Z,2.01
2023-02-27T00:46:40.701Z,1.98
2023-02-27T00:47:40.615Z,2.03
2023-02-27T00:48:40.613Z,1.97
2023-02-27T00:49:40.586Z,1.97
2023-02-27T00:50:40.568Z,1.95
2023-02-27T00:51:40.568Z,1.97
2023-02-27T00:52:40.576Z,1.92
2023-02-27T00:53:40.555Z,1.93
2023-02-27T00:54:40.540Z,1.93
2023-02-27T00:55:40.536Z,1.92
2023-02-27T00:56:40.516Z,1.88
2023-02-27T00:57:40.657Z,1.89
2023-02-27T00:58:40.508Z,1.85
2023-02-27T00:59:40.496Z,1.88
2023-02-27T01:00:40.529Z,1.86
2023-02-27T01:01:40.466Z,1.88
2023-02-27T01:02:40.533Z,1.86
2023-02-27T01:03:40.447Z,1.84
2023-02-27T01:04:40.464Z,1.84
2023-02-27T01:05:40.431Z,1.84
2023-02-27T01:06:40.436Z,1.81
2023-02-27T01:07:40.399Z,1.84
2023-02-27T01:08:40.400Z,1.81
2023-02-27T01:09:40.394Z,1.82
2023-02-27T01:10:40.369Z,1.79
2023-02-27T01:11:40.367Z,1.78
2023-02-27T01:12:40.348Z,1.81
2023-02-27T01:13:40.342Z,1.76
2023-02-27T01:14:40.335Z,1.79
2023-02-27T01:15:40.348Z,1.76
2023-02-27T01:16:40.392Z,1.76
2023-02-27T01:17:40.323Z,1.75
2023-02-27T01:18:40.293Z,1.74
2023-02-27T01:19:40.302Z,1.75
2023-02-27T01:20:40.264Z,1.76
2023-02-27T01:21:40.256Z,1.75
2023-02-27T01:22:40.237Z,1.71
2023-02-27T01:23:40.238Z,1.71
2023-02-27T01:24:40.237Z,1.71
2023-02-27T01:25:40.215Z,1.71
2023-02-27T01:26:40.216Z,1.71
2023-02-27T01:27:40.195Z,1.68
2023-02-27T01:28:40.303Z,1.68
2023-02-27T01:29:40.188Z,1.66
2023-02-27T01:30:40.179Z,1.70
2023-02-27T01:31:40.200Z,1.68
2023-02-27T01:32:40.181Z,1.67
2023-02-27T01:33:40.151Z,1.66
2023-02-27T01:34:40.148Z,1.64
2023-02-27T01:35:40.133Z,1.64
2023-02-27T01:36:40.104Z,1.64
2023-02-27T01:37:40.096Z,1.61
2023-02-27T01:38:40.095Z,1.64
2023-02-27T01:39:40.101Z,1.61
2023-02-27T01:40:40.063Z,1.63
2023-02-27T01:41:40.054Z,1.58
2023-02-27T01:42:40.051Z,1.58
2023-02-27T01:43:40.031Z,1.57
2023-02-27T01:44:40.036Z,1.58
2023-02-27T01:45:40.083Z,1.57
2023-02-27T01:46:39.996Z,1.58
2023-02-27T01:47:40.004Z,1.52
2023-02-27T01:48:39.982Z,1.56
2023-02-27T01:49:39.991Z,1.56
2023-02-27T01:50:39.952Z,1.56
2023-02-27T01:51:39.952Z,1.52
2023-02-27T01:52:39.945Z,1.50
2023-02-27T01:53:39.944Z,1.53
2023-02-27T01:54:39.931Z,1.50
2023-02-27T01:55:39.912Z,1.50
2023-02-27T01:56:39.900Z,1.48
2023-02-27T01:57:39.951Z,1.49
2023-02-27T01:58:39.893Z,1.49
2023-02-27T01:59:39.938Z,1.48
2023-02-27T02:00:39.880Z,1.45
2023-02-27T02:01:39.859Z,1.43
2023-02-27T02:02:39.880Z,1.43
2023-02-27T02:03:39.925Z,1.46
2023-02-27T02:04:39.915Z,1.43
2023-02-27T02:05:39.806Z,1.43
2023-02-27T02:06:39.812Z,1.43
2023-02-27T02:07:39.790Z,1.42
2023-02-27T02:08:39.782Z,1.42
2023-02-27T02:09:39.772Z,1.40
2023-02-27T02:10:39.777Z,1.39
2023-02-27T02:11:39.750Z,1.39
2023-02-27T02:12:39.735Z,1.39
2023-02-27T02:13:39.728Z,1.42
2023-02-27T02:14:39.716Z,1.39
2023-02-27T02:15:39.709Z,1.38
2023-02-27T02:16:39.699Z,1.34
2023-02-27T02:17:39.683Z,1.38
2023-02-27T02:18:39.676Z,1.34
2023-02-27T02:19:39.678Z,1.32
2023-02-27T02:20:39.656Z,1.34
2023-02-27T02:21:39.645Z,1.34
2023-02-27T02:22:39.645Z,1.31
2023-02-27T02:23:39.632Z,1.30
2023-02-27T02:24:39.616Z,1.31
2023-02-27T02:25:39.615Z,1.30
2023-02-27T02:26:39.593Z,1.32
2023-02-27T02:27:39.594Z,1.28
2023-02-27T02:28:39.574Z,1.28
2023-02-27T02:29:39.573Z,1.28
2023-02-27T02:30:39.655Z,1.28
2023-02-27T02:31:39.646Z,1.27
2023-02-27T02:32:39.596Z,1.25
2023-02-27T02:33:39.597Z,1.24
2023-02-27T02:34:39.513Z,1.25
2023-02-27T02:35:39.615Z,1.25
2023-02-27T02:36:39.522Z,1.22
2023-02-27T02:37:39.500Z,1.24
2023-02-27T02:38:39.482Z,1.24
2023-02-27T02:39:39.465Z,1.22
2023-02-27T02:40:39.474Z,1.20
2023-02-27T02:41:39.452Z,1.22
2023-02-27T02:42:39.445Z,1.21
2023-02-27T02:43:39.434Z,1.20
2023-02-27T02:44:39.424Z,1.21
2023-02-27T02:45:39.413Z,1.20
2023-02-27T02:46:39.411Z,1.16
2023-02-27T02:47:39.391Z,1.20
2023-02-27T02:48:39.371Z,1.16
2023-02-27T02:49:39.362Z,1.16
2023-02-27T02:50:39.366Z,1.16
2023-02-27T02:51:39.476Z,1.18
2023-02-27T02:52:39.334Z,1.14
2023-02-27T02:53:39.336Z,1.16
2023-02-27T02:54:39.311Z,1.13
2023-02-27T02:55:39.316Z,1.12
2023-02-27T02:56:39.310Z,1.10
2023-02-27T02:57:39.322Z,1.13
2023-02-27T02:58:39.280Z,1.12
2023-02-27T02:59:39.279Z,1.12
2023-02-27T03:00:39.279Z,1.09
2023-02-27T03:01:39.415Z,1.10
2023-02-27T03:02:39.249Z,1.12
2023-02-27T03:03:39.229Z,1.10
2023-02-27T03:04:39.344Z,1.09
2023-02-27T03:05:39.280Z,1.07
2023-02-27T03:06:39.217Z,1.07
2023-02-27T03:07:39.238Z,1.07
2023-02-27T03:08:39.222Z,1.04
2023-02-27T03:09:39.206Z,1.04
2023-02-27T03:10:39.228Z,1.03
2023-02-27T03:11:39.198Z,1.03
2023-02-27T03:12:39.233Z,1.03
2023-02-27T03:13:39.197Z,1.04
2023-02-27T03:14:39.209Z,1.02
2023-02-27T03:15:39.191Z,1.02
2023-02-27T03:16:39.136Z,0.99
2023-02-27T03:17:39.137Z,1.00
2023-02-27T03:18:39.116Z,1.00
2023-02-27T03:19:39.126Z,1.02
2023-02-27T03:20:39.125Z,0.96
2023-02-27T03:21:39.087Z,1.00
2023-02-27T03:22:39.062Z,0.99
2023-02-27T03:23:39.071Z,0.95
2023-02-27T03:24:39.041Z,0.94
2023-02-27T03:25:39.040Z,0.96
2023-02-27T03:26:39.020Z,0.96
2023-02-27T03:27:38.993Z,0.95
2023-02-27T03:28:38.987Z,0.94
2023-02-27T03:29:38.989Z,0.94
2023-02-27T03:30:39.005Z,0.91
2023-02-27T03:31:38.968Z,0.91
2023-02-27T03:32:38.941Z,0.91
2023-02-27T03:33:38.926Z,0.91
2023-02-27T03:34:38.914Z,0.85
2023-02-27T03:35:38.903Z,0.89
2023-02-27T03:36:38.906Z,0.88
2023-02-27T03:37:38.897Z,0.89
2023-02-27T03:38:38.873Z,0.86
2023-02-27T03:39:38.861Z,0.86
2023-02-27T03:40:38.867Z,0.85
2023-02-27T03:41:38.849Z,0.86
2023-02-27T03:42:38.831Z,0.84
2023-02-27T03:43:38.827Z,0.84
2023-02-27T03:44:38.803Z,0.82
2023-02-27T03:45:38.803Z,0.84
2023-02-27T03:46:38.866Z,0.82
2023-02-27T03:47:38.786Z,0.82
2023-02-27T03:48:38.812Z,0.81
2023-02-27T03:49:38.755Z,0.78
2023-02-27T03:50:38.830Z,0.77
2023-02-27T03:51:38.778Z,0.78
2023-02-27T03:52:38.760Z,0.76
2023-02-27T03:53:38.717Z,0.77
2023-02-27T03:54:38.810Z,0.76
2023-02-27T03:55:38.704Z,0.74
2023-02-27T03:56:38.763Z,0.74
2023-02-27T03:57:38.701Z,0.76
2023-02-27T03:58:38.702Z,0.73
2023-02-27T03:59:38.661Z,0.74
2023-02-27T04:00:38.661Z,0.74
2023-02-27T04:01:38.709Z,0.70
2023-02-27T04:02:38.653Z,0.73
2023-02-27T04:03:38.610Z,0.71
2023-02-27T04:04:38.638Z,0.70
2023-02-27T04:05:38.601Z,0.68
2023-02-27T04:06:38.608Z,0.70
2023-02-27T04:07:38.593Z,0.74
2023-02-27T04:08:38.560Z,0.67
2023-02-27T04:09:38.555Z,0.64
2023-02-27T04:10:38.556Z,0.67
2023-02-27T04:11:38.561Z,0.67
2023-02-27T04:12:38.532Z,0.67
2023-02-27T04:13:38.621Z,0.68
2023-02-27T04:14:38.509Z,0.64
2023-02-27T04:15:38.498Z,0.61
2023-02-27T04:16:38.510Z,0.64
2023-02-27T04:17:38.470Z,0.59
2023-02-27T04:18:38.458Z,0.63
2023-02-27T04:19:38.449Z,0.63
2023-02-27T04:20:38.448Z,0.61
2023-02-27T04:21:38.449Z,0.59
2023-02-27T04:22:38.459Z,0.59
2023-02-27T04:23:38.420Z,0.61
2023-02-27T04:24:38.395Z,0.59
2023-02-27T04:25:38.405Z,0.59
2023-02-27T04:26:38.386Z,0.59
2023-02-27T04:27:38.418Z,0.59
2023-02-27T04:28:38.399Z,0.55
2023-02-27T04:29:38.350Z,0.56
2023-02-27T04:30:38.363Z,0.55
2023-02-27T04:31:38.436Z,0.56
2023-02-27T04:32:38.510Z,0.52
2023-02-27T04:33:38.319Z,0.56
2023-02-27T04:34:38.321Z,0.52
2023-02-27T04:35:38.307Z,0.55
2023-02-27T04:36:38.288Z,0.51
2023-02-27T04:37:38.302Z,0.52
2023-02-27T04:38:38.277Z,0.52
2023-02-27T04:39:38.253Z,0.51
2023-02-27T04:40:38.253Z,0.51
2023-02-27T04:41:38.242Z,0.51
2023-02-27T04:42:38.242Z,0.49
2023-02-27T04:43:38.211Z,0.49
2023-02-27T04:44:38.245Z,0.48
2023-02-27T04:45:38.206Z,0.49
2023-02-27T04:46:38.199Z,0.45
2023-02-27T04:47:38.198Z,0.48
2023-02-27T04:48:38.170Z,0.51
2023-02-27T04:49:38.175Z,0.48
2023-02-27T04:50:38.152Z,0.47
2023-02-27T04:51:38.158Z,0.48
2023-02-27T04:52:38.161Z,0.47
2023-02-27T04:53:38.120Z,0.48
2023-02-27T04:54:38.110Z,0.47
2023-02-27T04:55:38.151Z,0.44
2023-02-27T04:56:38.092Z,0.44
2023-02-27T04:57:38.092Z,0.45
2023-02-27T04:58:38.085Z,0.47
2023-02-27T04:59:38.063Z,0.44
2023-02-27T05:00:38.052Z,0.45
2023-02-27T05:01:38.080Z,0.45
2023-02-27T05:02:38.145Z,0.44
2023-02-27T05:03:38.039Z,0.40
2023-02-27T05:04:38.023Z,0.42
2023-02-27T05:05:38.011Z,0.40
2023-02-27T05:06:38.019Z,0.40
2023-02-27T05:07:37.986Z,0.40
2023-02-27T05:08:37.974Z,0.39
2023-02-27T05:09:37.948Z,0.37
2023-02-27T05:10:37.970Z,0.36
2023-02-27T05:11:37.950Z,0.37
2023-02-27T05:12:37.946Z,0.40
2023-02-27T05:13:37.916Z,0.39
2023-02-27T05:14:37.916Z,0.40
2023-02-27T05:15:37.953Z,0.39
2023-02-27T05:16:37.986Z,0.34
2023-02-27T05:17:37.967Z,0.37
2023-02-27T05:18:37.936Z,0.34
2023-02-27T05:19:37.864Z,0.36
2023-02-27T05:20:37.843Z,0.33
2023-02-27T05:21:37.837Z,0.34
2023-02-27T05:22:37.836Z,0.36
2023-02-27T05:23:37.833Z,0.34
2023-02-27T05:24:37.802Z,0.34
2023-02-27T05:25:37.799Z,0.33
2023-02-27T05:26:37.783Z,0.30
2023-02-27T05:27:37.785Z,0.34
2023-02-27T05:28:37.763Z,0.34
2023-02-27T05:29:37.755Z,0.31
2023-02-27T05:30:37.752Z,0.33
2023-02-27T05:31:37.765Z,0.30
2023-02-27T05:32:37.829Z,0.27
2023-02-27T05:33:37.725Z,0.31
2023-02-27T05:34:37.721Z,0.30
2023-02-27T05:35:37.729Z,0.30
2023-02-27T05:36:37.726Z,0.29
2023-02-27T05:37:37.690Z,0.33
2023-02-27T05:38:37.668Z,0.30
2023-02-27T05:39:37.667Z,0.29
2023-02-27T05:40:37.661Z,0.29
2023-02-27T05:41:37.636Z,0.30
2023-02-27T05:42:37.653Z,0.27
2023-02-27T05:43:37.608Z,0.26
2023-02-27T05:44:37.624Z,0.24
2023-02-27T05:45:37.566Z,0.27
2023-02-27T05:46:37.544Z,0.26
2023-02-27T05:47:37.540Z,0.27
2023-02-27T05:48:37.542Z,0.20
2023-02-27T05:49:37.538Z,0.24
2023-02-27T05:50:37.525Z,0.24
2023-02-27T05:51:37.472Z,0.24
2023-02-27T05:52:37.474Z,0.26
2023-02-27T05:53:37.452Z,0.24
2023-02-27T05:54:37.455Z,0.24
2023-02-27T05:55:37.437Z,0.20
2023-02-27T05:56:37.439Z,0.24
2023-02-27T05:57:37.423Z,0.24
2023-02-27T05:58:37.446Z,0.23
2023-02-27T05:59:37.395Z,0.24
2023-02-27T06:00:37.418Z,0.18
2023-02-27T06:01:37.372Z,0.23
2023-02-27T06:02:37.374Z,0.20
2023-02-27T06:03:37.415Z,0.20
2023-02-27T06:04:37.387Z,0.20
2023-02-27T06:05:37.337Z,0.24
2023-02-27T06:06:37.391Z,0.18
2023-02-27T06:07:37.318Z,0.20
2023-02-27T06:08:37.346Z,0.20
2023-02-27T06:09:37.305Z,0.19
2023-02-27T06:10:37.292Z,0.20
2023-02-27T06:11:37.273Z,0.20
2023-02-27T06:12:37.285Z,0.16
2023-02-27T06:13:37.265Z,0.18
2023-02-27T06:14:37.250Z,0.20
2023-02-27T06:15:37.266Z,0.18
2023-02-27T06:16:37.259Z,0.18
2023-02-27T06:17:37.214Z,0.19
2023-02-27T06:18:37.239Z,0.20
2023-02-27T06:19:37.215Z,0.19
2023-02-27T06:20:37.181Z,0.19
2023-02-27T06:21:37.181Z,0.19
2023-02-27T06:22:37.162Z,0.18
2023-02-27T06:23:37.252Z,0.19
2023-02-27T06:24:37.157Z,0.13
2023-02-27T06:25:37.134Z,0.18
2023-02-27T06:26:37.129Z,0.15
2023-02-27T06:27:37.188Z,0.16
2023-02-27T06:28:37.138Z,0.16
2023-02-27T06:29:37.118Z,0.18
2023-02-27T06:30:37.123Z,0.19
2023-02-27T06:31:37.068Z,0.18
2023-02-27T06:32:37.263Z,0.19
2023-02-27T06:33:37.110Z,0.18
2023-02-27T06:34:37.064Z,0.15
2023-02-27T06:35:37.033Z,0.16
2023-02-27T06:36:37.044Z,0.18
2023-02-27T06:37:37.037Z,0.18
2023-02-27T06:38:36.997Z,0.19
2023-02-27T06:39:36.990Z,0.18
2023-02-27T06:40:36.973Z,0.19
2023-02-27T06:41:36.981Z,0.18
2023-02-27T06:42:36.962Z,0.16
2023-02-27T06:43:36.994Z,0.18
2023-02-27T06:44:36.974Z,0.19
2023-02-27T06:45:36.946Z,0.16
2023-02-27T06:46:36.974Z,0.19
2023-02-27T06:47:36.902Z,0.19
2023-02-27T06:48:36.920Z,0.16
2023-02-27T06:49:36.888Z,0.20
2023-02-27T06:50:36.931Z,0.24
2023-02-27T06:51:37.104Z,0.19
2023-02-27T06:52:36.849Z,0.24
2023-02-27T06:53:36.893Z,0.26
2023-02-27T06:54:36.876Z,0.24
2023-02-27T06:55:36.828Z,0.26
2023-02-27T06:56:36.821Z,0.26
2023-02-27T06:57:36.820Z,0.30
2023-02-27T06:58:36.825Z,0.27
2023-02-27T06:59:36.790Z,0.30
2023-02-27T07:00:36.795Z,0.29
2023-02-27T07:01:36.850Z,0.31
2023-02-27T07:02:36.748Z,0.29
2023-02-27T07:03:36.733Z,0.36
2023-02-27T07:04:36.775Z,0.36
2023-02-27T07:05:36.723Z,0.37
2023-02-27T07:07:36.417Z,0.39
2023-02-27T07:07:38.971Z,0.39
2023-02-27T07:08:36.775Z,0.39
2023-02-27T07:09:36.687Z,0.42
2023-02-27T07:10:36.671Z,0.39
2023-02-27T07:11:36.650Z,0.44
2023-02-27T07:12:36.670Z,0.48
2023-02-27T07:13:36.655Z,0.48
2023-02-27T07:14:36.679Z,0.49
2023-02-27T07:15:36.634Z,0.49
2023-02-27T07:16:36.680Z,0.51
2023-02-27T07:17:36.596Z,0.52
2023-02-27T07:18:36.620Z,0.52
2023-02-27T07:19:36.596Z,0.56
2023-02-27T07:20:36.573Z,0.56
2023-02-27T07:21:36.544Z,0.59
2023-02-27T07:22:36.564Z,0.58
2023-02-27T07:23:36.525Z,0.61
2023-02-27T07:24:36.546Z,0.64
2023-02-27T07:25:36.504Z,0.66
2023-02-27T07:26:36.549Z,0.66
2023-02-27T07:27:36.502Z,0.68
2023-02-27T07:28:36.559Z,0.63
2023-02-27T07:29:36.498Z,0.70
2023-02-27T07:30:36.463Z,0.70
2023-02-27T07:31:36.453Z,0.74
2023-02-27T07:32:36.461Z,0.76
2023-02-27T07:33:36.428Z,0.81
2023-02-27T07:34:36.455Z,0.81
2023-02-27T07:35:36.451Z,0.84
2023-02-27T07:36:36.403Z,0.86
2023-02-27T07:37:36.412Z,0.88
2023-02-27T07:38:36.394Z,0.89
2023-02-27T07:39:36.405Z,0.94
2023-02-27T07:40:36.414Z,0.96
2023-02-27T07:41:36.355Z,0.99
2023-02-27T07:42:36.346Z,1.02
2023-02-27T07:43:36.339Z,1.04
2023-02-27T07:44:36.334Z,1.07
2023-02-27T07:45:36.314Z,1.07
2023-02-27T07:46:36.399Z,1.14
2023-02-27T07:47:36.296Z,1.16
2023-02-27T07:48:36.273Z,1.18
2023-02-27T07:49:36.272Z,1.24
2023-02-27T07:50:36.272Z,1.27
2023-02-27T07:51:36.453Z,1.30
2023-02-27T07:52:36.241Z,1.34
2023-02-27T07:53:36.222Z,1.39
2023-02-27T07:54:36.223Z,1.42
2023-02-27T07:55:36.250Z,1.46
2023-02-27T07:56:36.205Z,1.46
2023-02-27T07:57:36.248Z,1.48
2023-02-27T07:58:36.192Z,1.52
2023-02-27T07:59:36.198Z,1.57
2023-02-27T08:00:36.182Z,1.58
2023-02-27T08:01:36.154Z,1.63
2023-02-27T08:02:36.199Z,1.66
2023-02-27T08:03:36.137Z,1.68
2023-02-27T08:04:36.127Z,1.70
2023-02-27T08:05:36.161Z,1.78
2023-02-27T08:06:36.104Z,1.75
2023-02-27T08:07:36.092Z,1.81
2023-02-27T08:08:36.071Z,1.85
2023-02-27T08:09:36.081Z,1.88
2023-02-27T08:10:36.156Z,1.92
2023-02-27T08:11:36.064Z,1.97
2023-02-27T08:12:36.190Z,2.00
2023-02-27T08:13:59.418Z,2.00
2023-02-27T08:14:37.036Z,2.05
2023-02-27T08:15:36.022Z,2.08
2023-02-27T08:16:36.079Z,2.14
2023-02-27T08:17:36.020Z,2.19
2023-02-27T08:18:36.005Z,2.18
2023-02-27T08:19:35.969Z,2.23
2023-02-27T08:20:36.030Z,2.28
2023-02-27T08:21:35.963Z,2.34
2023-02-27T08:22:35.938Z,2.36
2023-02-27T08:23:35.930Z,2.41
2023-02-27T08:24:35.913Z,2.47
2023-02-27T08:25:35.948Z,2.52
2023-02-27T08:26:35.899Z,2.54
2023-02-27T08:27:35.898Z,2.61
2023-02-27T08:28:35.867Z,2.61
2023-02-27T08:29:35.917Z,2.69
2023-02-27T08:30:35.896Z,2.72
2023-02-27T08:31:36.051Z,2.77
2023-02-27T08:32:35.921Z,2.82
2023-02-27T08:33:35.878Z,2.83
2023-02-27T08:34:35.813Z,2.88
2023-02-27T08:35:35.865Z,2.91
2023-02-27T08:36:35.782Z,2.95
2023-02-27T08:37:35.799Z,2.97
2023-02-27T08:38:35.767Z,3.03
2023-02-27T08:39:35.820Z,3.06
2023-02-27T08:40:35.765Z,3.09
2023-02-27T08:41:35.752Z,3.13
2023-02-27T08:42:35.728Z,3.16
2023-02-27T08:43:35.718Z,3.18
2023-02-27T08:44:35.717Z,3.24
2023-02-27T08:45:35.741Z,3.29
2023-02-27T08:46:35.709Z,3.33
2023-02-27T08:47:35.723Z,3.34
2023-02-27T08:48:35.665Z,3.40
2023-02-27T08:49:35.650Z,3.49
2023-02-27T08:50:35.976Z,3.50
2023-02-27T08:51:35.947Z,3.55
2023-02-27T08:52:35.625Z,3.59
2023-02-27T08:53:35.817Z,3.68
2023-02-27T08:54:35.597Z,3.71
2023-02-27T08:55:35.628Z,3.76
2023-02-27T08:56:35.626Z,3.81
2023-02-27T08:57:35.567Z,3.86
2023-02-27T08:58:35.567Z,3.91
2023-02-27T08:59:35.554Z,3.96
2023-02-27T09:00:35.559Z,4.00
2023-02-27T09:01:35.549Z,4.06
2023-02-27T09:02:35.590Z,4.13
2023-02-27T09:03:35.541Z,4.20
2023-02-27T09:04:35.494Z,4.22
2023-02-27T09:05:35.511Z,4.28
2023-02-27T09:06:35.501Z,4.38
2023-02-27T09:07:35.458Z,4.40
2023-02-27T09:08:35.528Z,4.45
2023-02-27T09:09:35.460Z,4.52
2023-02-27T09:10:35.427Z,4.57
2023-02-27T09:11:38.173Z,4.63
2023-02-27T09:12:35.450Z,4.68
2023-02-27T09:13:35.416Z,4.74
2023-02-27T09:14:35.408Z,4.78
2023-02-27T09:15:35.653Z,4.86
2023-02-27T09:16:35.506Z,4.92
2023-02-27T09:17:35.397Z,4.98
2023-02-27T09:18:35.386Z,5.05
2023-02-27T09:19:35.357Z,5.12
2023-02-27T09:20:35.366Z,5.18
2023-02-27T09:21:35.348Z,5.25
2023-02-27T09:22:35.346Z,5.33
2023-02-27T09:23:35.299Z,5.37
2023-02-27T09:24:35.343Z,5.41
2023-02-27T09:25:35.294Z,5.51
2023-02-27T09:26:45.040Z,5.56
2023-02-27T09:27:36.286Z,5.61
2023-02-27T09:28:35.292Z,5.69
2023-02-27T09:29:35.238Z,5.70
2023-02-27T09:30:35.225Z,5.79
2023-02-27T09:31:35.515Z,5.81
2023-02-27T09:32:35.438Z,5.88
2023-02-27T09:33:35.195Z,5.94
2023-02-27T09:34:35.203Z,5.99
2023-02-27T09:35:35.209Z,6.06
2023-02-27T09:36:35.188Z,6.15
2023-02-27T09:37:35.165Z,6.19
2023-02-27T09:38:35.182Z,6.25
2023-02-27T09:39:35.239Z,6.31
2023-02-27T09:40:35.156Z,6.34
2023-02-27T09:41:35.124Z,6.39
2023-02-27T09:42:35.132Z,6.44
2023-02-27T09:43:35.108Z,6.52
2023-02-27T09:44:45.653Z,6.54
2023-02-27T09:45:36.084Z,6.64
2023-02-27T09:46:35.085Z,6.71
2023-02-27T09:47:35.058Z,6.75
2023-02-27T09:48:35.042Z,6.83
2023-02-27T09:49:35.029Z,6.92
2023-02-27T09:50:35.012Z,6.97
2023-02-27T09:51:35.024Z,7.05
2023-02-27T09:52:35.004Z,7.14
2023-02-27T09:53:35.012Z,7.29
2023-02-27T09:54:34.992Z,7.41
2023-02-27T09:55:35.016Z,7.56
2023-02-27T09:56:34.967Z,7.75
2023-02-27T09:57:34.943Z,7.88
2023-02-27T09:58:34.929Z,8.08
2023-02-27T09:59:34.932Z,8.35
2023-02-27T10:00:34.908Z,8.57
2023-02-27T10:01:34.918Z,8.86
2023-02-27T10:02:34.919Z,9.08
2023-02-27T10:03:34.915Z,9.31
2023-02-27T10:04:34.860Z,9.55
2023-02-27T10:05:34.860Z,9.76
2023-02-27T10:06:35.501Z,10.00
2023-02-27T10:07:34.897Z,10.23
2023-02-27T10:08:34.825Z,10.43
2023-02-27T10:09:34.829Z,10.59
2023-02-27T10:10:34.812Z,10.65
2023-02-27T10:11:34.808Z,10.72
2023-02-27T10:12:34.802Z,10.71
2023-02-27T10:13:34.800Z,10.68
2023-02-27T10:14:34.764Z,10.65
2023-02-27T10:15:34.762Z,10.58
2023-02-27T10:16:34.820Z,10.39
2023-02-27T10:17:34.763Z,10.31
2023-02-27T10:18:34.727Z,10.18
2023-02-27T10:19:34.732Z,10.07
2023-02-27T10:20:34.697Z,10.00
2023-02-27T10:21:34.696Z,9.91
2023-02-27T10:22:34.716Z,9.73
2023-02-27T10:23:34.663Z,9.66
2023-02-27T10:24:34.652Z,9.59
2023-02-27T10:25:34.643Z,9.56
2023-02-27T10:26:34.622Z,9.54
2023-02-27T10:27:34.660Z,9.52
2023-02-27T10:28:34.659Z,9.47
2023-02-27T10:29:34.613Z,9.37
2023-02-27T10:30:35.276Z,9.36
2023-02-27T10:31:34.675Z,9.34
2023-02-27T10:32:34.573Z,9.29
2023-02-27T10:33:34.553Z,9.27
2023-02-27T10:34:34.543Z,9.21
2023-02-27T10:35:34.584Z,9.24
2023-02-27T10:36:35.044Z,9.22
2023-02-27T10:37:34.532Z,9.27
2023-02-27T10:38:34.521Z,9.31
2023-02-27T10:39:34.513Z,9.39
2023-02-27T10:40:34.493Z,9.47
2023-02-27T10:41:34.510Z,9.52
2023-02-27T10:42:34.473Z,9.59
2023-02-27T10:43:34.493Z,9.66
2023-02-27T10:44:34.538Z,9.72
2023-02-27T10:45:34.455Z,9.72
2023-02-27T10:46:34.477Z,9.77
2023-02-27T10:47:34.408Z,9.81
2023-02-27T10:48:34.410Z,9.84
2023-02-27T10:49:34.417Z,9.87
2023-02-27T10:50:34.386Z,9.95
2023-02-27T10:51:34.421Z,10.03
2023-02-27T10:52:34.367Z,10.07
2023-02-27T10:53:34.380Z,10.15
2023-02-27T10:54:34.347Z,10.20
2023-02-27T10:55:34.365Z,10.24
2023-02-27T10:56:34.306Z,10.34
2023-02-27T10:57:34.305Z,10.43
2023-02-27T10:58:34.964Z,10.42
2023-02-27T10:59:34.275Z,10.46
2023-02-27T11:00:34.265Z,10.57
2023-02-27T11:01:34.266Z,10.64
2023-02-27T11:02:34.247Z,10.67
2023-02-27T11:03:34.251Z,10.72
2023-02-27T11:04:34.270Z,10.83
2023-02-27T11:05:34.216Z,11.04
2023-02-27T11:06:34.204Z,11.18
2023-02-27T11:07:34.285Z,11.34
2023-02-27T11:08:34.188Z,11.51
2023-02-27T11:09:34.233Z,11.70
2023-02-27T11:10:34.171Z,11.88
2023-02-27T11:11:34.182Z,12.07
2023-02-27T11:12:34.185Z,12.26
2023-02-27T11:13:34.149Z,12.35
2023-02-27T11:14:34.128Z,12.45
2023-02-27T11:15:34.167Z,12.57
2023-02-27T11:16:34.101Z,12.58
2023-02-27T11:17:34.156Z,12.66
2023-02-27T11:18:34.101Z,12.69
2023-02-27T11:19:34.073Z,12.65
2023-02-27T11:20:34.071Z,12.61
2023-02-27T11:21:34.044Z,12.54
2023-02-27T11:22:34.075Z,12.43
2023-02-27T11:23:34.049Z,12.33
2023-02-27T11:24:34.010Z,12.39
2023-02-27T11:25:34.057Z,12.48
2023-02-27T11:26:34.002Z,12.54
2023-02-27T11:27:33.986Z,12.53
2023-02-27T11:28:33.984Z,12.51
2023-02-27T11:29:33.974Z,12.48
2023-02-27T11:30:33.956Z,12.37
2023-02-27T11:31:33.972Z,12.33
2023-02-27T11:32:33.937Z,12.37
2023-02-27T11:33:33.927Z,12.30
2023-02-27T11:34:33.910Z,12.23
2023-02-27T11:35:33.924Z,12.14
2023-02-27T11:36:33.889Z,12.07
2023-02-27T11:37:33.902Z,11.97
2023-02-27T11:38:33.876Z,11.89
2023-02-27T11:39:33.869Z,11.77
2023-02-27T11:40:33.860Z,11.83
2023-02-27T11:41:33.831Z,11.81
2023-02-27T11:42:33.831Z,11.77
2023-02-27T11:43:33.839Z,11.96
2023-02-27T11:44:49.820Z,11.88
2023-02-27T11:46:05.117Z,11.96
2023-02-27T11:46:48.002Z,11.81
2023-02-27T11:47:34.973Z,11.74
2023-02-27T11:48:33.769Z,11.62
2023-02-27T11:49:33.771Z,11.52
2023-02-27T11:50:33.737Z,11.44
2023-02-27T11:51:33.728Z,11.43
2023-02-27T11:52:33.709Z,11.38
2023-02-27T11:53:33.700Z,11.34
2023-02-27T11:54:33.727Z,11.35
2023-02-27T11:55:33.686Z,11.34
2023-02-27T11:56:36.009Z,11.30
2023-02-27T11:57:33.675Z,11.22
2023-02-27T11:58:33.648Z,11.43
2023-02-27T11:59:33.654Z,11.63
2023-02-27T12:00:33.627Z,11.73
2023-02-27T12:01:33.617Z,11.76
2023-02-27T12:02:33.618Z,11.74
2023-02-27T12:03:33.648Z,11.70
2023-02-27T12:04:33.587Z,11.78
2023-02-27T12:05:33.582Z,11.73
2023-02-27T12:06:33.566Z,11.60
2023-02-27T12:07:33.549Z,11.48
2023-02-27T12:08:33.616Z,11.60
2023-02-27T12:09:33.607Z,12.02
2023-02-27T12:10:33.548Z,12.28
2023-02-27T12:11:33.538Z,12.61
2023-02-27T12:12:33.557Z,12.99
2023-02-27T12:13:33.565Z,13.43
2023-02-27T12:14:33.529Z,13.83
2023-02-27T12:15:33.526Z,14.23
2023-02-27T12:16:33.976Z,14.66
2023-02-27T12:17:33.460Z,15.11
2023-02-27T12:18:33.428Z,15.50
2023-02-27T12:19:33.485Z,15.94
2023-02-27T12:20:33.411Z,16.39
2023-02-27T12:21:33.393Z,16.79
2023-02-27T12:22:33.390Z,17.27
2023-02-27T12:23:33.376Z,17.71
2023-02-27T12:24:33.388Z,18.18
2023-02-27T12:25:33.406Z,18.48
2023-02-27T12:26:33.353Z,18.78
2023-02-27T12:27:33.330Z,18.78
2023-02-27T12:28:33.338Z,18.39
2023-02-27T12:29:33.330Z,17.95
2023-02-27T12:30:33.315Z,17.52
2023-02-27T12:31:33.284Z,17.14
2023-02-27T12:32:33.297Z,16.79
2023-02-27T12:33:33.257Z,16.50
2023-02-27T12:34:33.269Z,16.17
2023-02-27T12:35:33.303Z,15.84
2023-02-27T12:36:33.243Z,15.59
2023-02-27T12:37:33.221Z,15.29
2023-02-27T12:38:34.576Z,15.02
2023-02-27T12:39:33.523Z,14.79
2023-02-27T12:40:33.183Z,14.53
2023-02-27T12:41:33.182Z,14.28
2023-02-27T12:42:33.170Z,14.11
2023-02-27T12:43:33.161Z,13.89
2023-02-27T12:44:33.211Z,13.71
2023-02-27T12:45:33.225Z,13.57
2023-02-27T12:46:33.123Z,13.52
2023-02-27T12:47:33.105Z,13.43
2023-02-27T12:48:33.097Z,13.28
2023-02-27T12:49:33.119Z,13.13
2023-02-27T12:50:33.079Z,13.01
2023-02-27T12:51:33.078Z,12.84
2023-02-27T12:52:33.078Z,12.72
2023-02-27T12:53:33.062Z,12.66
2023-02-27T12:54:33.051Z,12.63
2023-02-27T12:55:33.018Z,12.68
2023-02-27T12:56:33.018Z,12.61
2023-02-27T12:57:33.008Z,12.51
2023-02-27T12:58:33.009Z,12.33
2023-02-27T12:59:32.978Z,12.20
2023-02-27T13:00:32.997Z,12.03
2023-02-27T13:01:33.002Z,11.96
2023-02-27T13:02:32.969Z,11.83
2023-02-27T13:03:32.966Z,11.74
2023-02-27T13:04:32.925Z,11.60
2023-02-27T13:05:32.937Z,11.53
2023-02-27T13:06:32.921Z,11.51
2023-02-27T13:07:32.883Z,11.62
2023-02-27T13:08:32.882Z,11.59
2023-02-27T13:09:32.906Z,11.53
2023-02-27T13:10:32.896Z,11.51
2023-02-27T13:11:32.848Z,11.53
2023-02-27T13:12:32.836Z,11.62
2023-02-27T13:13:32.834Z,11.65